Time;durP1;ratioP1;P1;durP2;ratioP2;P2;SDS_P1;SDS_P2;PMS_P1;PMS_P2;Temp;Humidity;BMP_temperature;BMP_pressure;BME280_temperature;BME280_humidity;BME280_pressure;Samples;Min_cycle;Max_cycle;Signal;HPM_P1;HPM_P2
2023/01/26 00:01:43;;;;;;;21.58;11.15;;;4.50;99.90;;;;;;4934451;29;20050;-74
2023/01/26 00:04:09;;;;;;;21.60;11.23;;;4.50;99.90;;;;;;4918668;29;20294;-74
2023/01/26 00:06:35;;;;;;;21.05;11.02;;;4.50;99.90;;;;;;4917687;29;20047;-72
2023/01/26 00:09:01;;;;;;;18.17;10.57;;;4.50;99.90;;;;;;4923080;28;20042;-72
2023/01/26 00:11:29;;;;;;;13.50;7.28;;;4.50;99.90;;;;;;4921503;29;20083;-72
2023/01/26 00:13:56;;;;;;;20.02;9.93;;;4.10;99.90;;;;;;4925252;29;20051;-72
2023/01/26 00:16:22;;;;;;;21.85;11.60;;;4.60;99.90;;;;;;4933379;29;20075;-72
2023/01/26 00:18:48;;;;;;;22.30;11.73;;;4.50;99.90;;;;;;4933093;29;20039;-72
2023/01/26 00:21:17;;;;;;;22.73;11.40;;;4.20;99.90;;;;;;4934231;29;20047;-72
2023/01/26 00:23:43;;;;;;;20.25;10.68;;;4.00;99.90;;;;;;4933750;29;20039;-72
2023/01/26 00:26:12;;;;;;;21.73;11.18;;;4.50;99.90;;;;;;4918451;29;20371;-72
2023/01/26 00:28:37;;;;;;;19.65;10.98;;;4.30;99.90;;;;;;4932511;29;20039;-72
2023/01/26 00:31:04;;;;;;;20.10;10.43;;;4.50;99.90;;;;;;4924385;29;20126;-72
2023/01/26 00:33:30;;;;;;;20.42;10.32;;;4.60;99.90;;;;;;4901188;29;20048;-72
2023/01/26 00:35:56;;;;;;;22.38;11.48;;;4.60;99.90;;;;;;4917815;29;20055;-72
2023/01/26 00:38:22;;;;;;;16.08;7.90;;;4.60;99.90;;;;;;4916785;29;20039;-72
2023/01/26 00:40:47;;;;;;;19.70;10.90;;;4.20;99.90;;;;;;4920867;29;20086;-72
2023/01/26 00:43:13;;;;;;;23.33;11.32;;;4.30;99.90;;;;;;4916983;29;20075;-72
2023/01/26 00:45:39;;;;;;;22.38;11.50;;;4.60;99.90;;;;;;4916703;29;20356;-72
2023/01/26 00:48:05;;;;;;;23.80;11.80;;;4.50;99.90;;;;;;4918346;29;20111;-72
2023/01/26 00:50:32;;;;;;;23.33;12.15;;;4.30;99.90;;;;;;4916254;29;20118;-72
2023/01/26 00:52:57;;;;;;;;;;;4.50;99.90;;;;;;4921779;29;20091;-72
2023/01/26 00:55:23;;;;;;;23.65;12.02;;;4.40;99.90;;;;;;4936149;28;19962;-72
2023/01/26 00:57:49;;;;;;;22.58;11.57;;;4.10;99.90;;;;;;4934549;29;20512;-72
2023/01/26 01:00:16;;;;;;;19.70;10.75;;;4.20;99.90;;;;;;4928541;29;20118;-72
2023/01/26 01:02:43;;;;;;;19.15;10.23;;;4.50;99.90;;;;;;4949069;29;20043;-72
2023/01/26 01:05:09;;;;;;;22.45;10.40;;;4.30;99.90;;;;;;4939393;29;20067;-72
2023/01/26 01:07:35;;;;;;;19.33;10.45;;;4.20;99.90;;;;;;4932821;29;20495;-72
2023/01/26 01:10:00;;;;;;;22.50;11.57;;;4.30;99.90;;;;;;4931756;28;20053;-72
2023/01/26 01:12:26;;;;;;;20.70;10.00;;;4.70;99.90;;;;;;4915767;29;20306;-72
2023/01/26 01:14:52;;;;;;;20.63;10.85;;;4.10;99.90;;;;;;4915758;29;20048;-72
2023/01/26 01:17:18;;;;;;;18.83;10.25;;;4.60;99.90;;;;;;4932601;29;20539;-72
2023/01/26 01:19:43;;;;;;;17.33;9.48;;;4.70;99.90;;;;;;4932628;29;20036;-72
2023/01/26 01:22:09;;;;;;;19.85;10.50;;;4.80;99.90;;;;;;4933968;29;20036;-72
2023/01/26 01:24:35;;;;;;;18.50;9.23;;;4.20;99.90;;;;;;4931314;29;20051;-72
2023/01/26 01:27:01;;;;;;;14.82;8.07;;;4.70;99.90;;;;;;4931184;29;20048;-72
2023/01/26 01:29:27;;;;;;;18.33;9.35;;;4.30;99.90;;;;;;4916712;29;20036;-72
2023/01/26 01:31:52;;;;;;;18.45;9.32;;;4.60;99.90;;;;;;4931487;29;20420;-72
2023/01/26 01:34:18;;;;;;;17.65;9.55;;;4.30;99.90;;;;;;4940599;29;20709;-72
2023/01/26 01:36:44;;;;;;;20.50;10.25;;;4.30;99.90;;;;;;4935336;29;20039;-72
2023/01/26 01:39:10;;;;;;;18.27;9.55;;;4.60;99.90;;;;;;4909610;29;20051;-72
2023/01/26 01:41:35;;;;;;;17.27;9.32;;;4.60;99.90;;;;;;4932559;29;20057;-72
2023/01/26 01:44:15;;;;;;;21.80;11.27;;;4.30;99.90;;;;;;4946963;29;20040;-72
2023/01/26 01:46:59;;;;;;;20.15;10.60;;;4.70;99.90;;;;;;4930878;29;20047;-72
2023/01/26 01:49:31;;;;;;;19.00;9.57;;;4.30;99.90;;;;;;4931027;29;20043;-73
2023/01/26 01:52:11;;;;;;;18.52;9.55;;;4.60;99.90;;;;;;4899547;29;1144367;-72
2023/01/26 01:54:54;;;;;;;19.33;9.55;;;4.90;99.90;;;;;;4922282;29;20054;-72
2023/01/26 01:57:27;;;;;;;17.80;9.50;;;4.90;99.90;;;;;;4916190;29;20058;-72
2023/01/26 02:00:03;;;;;;;15.57;8.77;;;4.90;99.90;;;;;;4915709;29;20063;-74
2023/01/26 02:02:28;;;;;;;18.30;10.25;;;4.90;99.90;;;;;;4923412;29;20360;-74
2023/01/26 02:04:58;;;;;;;17.13;9.57;;;4.70;99.90;;;;;;4929926;29;20054;-74
2023/01/26 02:07:24;;;;;;;17.27;8.82;;;4.90;99.90;;;;;;4919526;29;20632;-74
2023/01/26 02:12:35;;;;;;;18.00;9.10;;;4.40;99.90;;;;;;4909188;29;20518;-74
2023/01/26 02:15:02;;;;;;;16.58;8.73;;;4.40;99.90;;;;;;4934150;29;20498;-74
2023/01/26 02:17:27;;;;;;;17.25;7.95;;;4.30;99.90;;;;;;4920743;29;20039;-74
2023/01/26 02:20:03;;;;;;;11.73;6.43;;;4.70;99.90;;;;;;4936124;29;20105;-74
2023/01/26 02:22:46;;;;;;;11.20;6.30;;;4.60;99.90;;;;;;4924048;29;20039;-74
2023/01/26 02:25:39;;;;;;;16.45;8.68;;;4.50;99.90;;;;;;4915822;29;20483;-74
2023/01/26 02:28:04;;;;;;;13.05;6.95;;;4.80;99.90;;;;;;4875459;29;20349;-74
2023/01/26 02:30:31;;;;;;;14.43;7.53;;;4.70;99.90;;;;;;4931756;29;20050;-74
2023/01/26 02:32:57;;;;;;;13.80;6.90;;;4.50;99.90;;;;;;4936149;29;20047;-74
2023/01/26 02:35:23;;;;;;;11.77;6.88;;;4.50;99.90;;;;;;4935963;29;20055;-74
2023/01/26 02:37:49;;;;;;;12.02;6.68;;;5.00;99.90;;;;;;4919923;29;20115;-74
2023/01/26 02:40:39;;;;;;;11.10;6.28;;;5.00;99.90;;;;;;4933453;29;20137;-74
2023/01/26 02:43:05;;;;;;;11.43;6.20;;;5.10;99.90;;;;;;4919215;29;20044;-74
2023/01/26 02:45:32;;;;;;;10.98;6.03;;;5.10;99.90;;;;;;4918585;29;20122;-74
2023/01/26 02:48:03;;;;;;;8.65;5.28;;;5.10;99.90;;;;;;4920650;29;20098;-74
2023/01/26 02:50:29;;;;;;;11.30;5.80;;;4.60;99.90;;;;;;4933381;29;20069;-74
2023/01/26 02:52:55;;;;;;;12.40;6.53;;;5.10;99.90;;;;;;4923672;29;20060;-74
2023/01/26 02:55:21;;;;;;;13.88;7.82;;;4.50;99.90;;;;;;4939864;29;20477;-74
2023/01/26 02:57:48;;;;;;;11.80;6.78;;;4.60;99.90;;;;;;4941987;28;20090;-74
2023/01/26 03:00:23;;;;;;;11.43;6.07;;;5.10;99.90;;;;;;4935159;29;20055;-75
2023/01/26 03:02:51;;;;;;;12.90;6.38;;;4.60;99.90;;;;;;4945741;29;20058;-74
2023/01/26 03:05:16;;;;;;;12.13;7.25;;;4.60;99.90;;;;;;4951299;29;20027;-74
2023/01/26 03:07:42;;;;;;;11.95;6.03;;;4.60;99.90;;;;;;4934372;29;20047;-75
2023/01/26 03:10:09;;;;;;;11.13;6.43;;;4.60;99.90;;;;;;4938671;29;20491;-74
2023/01/26 03:12:34;;;;;;;14.10;7.15;;;4.90;99.90;;;;;;4938062;29;20048;-74
2023/01/26 03:17:44;;;;;;;12.90;7.25;;;4.70;99.90;;;;;;4948369;29;20556;-75
2023/01/26 03:28:23;;;;;;;13.85;7.30;;;4.70;99.90;;;;;;4950775;29;20102;-75
2023/01/26 03:30:54;;;;;;;14.07;7.70;;;4.80;99.90;;;;;;4938568;29;20542;-74
2023/01/26 03:33:20;;;;;;;10.02;5.53;;;4.80;99.90;;;;;;4947912;29;20213;-74
2023/01/26 03:35:46;;;;;;;10.32;5.60;;;5.40;99.90;;;;;;4950628;29;20138;-74
2023/01/26 03:38:12;;;;;;;11.70;6.68;;;5.10;99.90;;;;;;4927019;29;20051;-74
2023/01/26 03:57:04;;;;;;;9.00;4.97;;;4.90;99.90;;;;;;4947488;29;20130;-74
2023/01/26 03:59:39;;;;;;;11.50;6.32;;;5.50;99.90;;;;;;4950693;29;20051;-74
2023/01/26 04:10:24;;;;;;;7.22;4.35;;;5.10;99.90;;;;;;4949706;29;20530;-74
2023/01/26 04:23:56;;;;;;;7.72;4.18;;;5.00;99.90;;;;;;4939793;29;20466;-74
2023/01/26 04:26:26;;;;;;;10.05;5.03;;;5.40;99.90;;;;;;4944822;28;20047;-75
2023/01/26 04:28:52;;;;;;;10.23;5.53;;;5.00;99.90;;;;;;4942738;29;20052;-74
2023/01/26 04:31:18;;;;;;;9.00;5.20;;;5.00;99.90;;;;;;4932642;29;20094;-74
2023/01/26 04:33:44;;;;;;;10.77;6.43;;;5.10;99.90;;;;;;4933972;29;20126;-74
2023/01/26 04:36:09;;;;;;;9.25;5.00;;;5.60;99.90;;;;;;4932507;29;20508;-74
2023/01/26 04:38:35;;;;;;;8.90;4.82;;;5.00;99.90;;;;;;4916651;29;20048;-74
2023/01/26 04:41:01;;;;;;;8.52;4.75;;;5.60;99.90;;;;;;4933191;29;20043;-74
2023/01/26 04:43:27;;;;;;;9.45;5.28;;;5.10;99.90;;;;;;4948453;29;20049;-74
2023/01/26 04:46:05;;;;;;;6.38;3.75;;;5.10;99.90;;;;;;4940775;29;20050;-75
2023/01/26 04:48:31;;;;;;;8.82;4.90;;;5.70;99.90;;;;;;4932379;29;20040;-74
2023/01/26 04:51:01;;;;;;;7.95;4.20;;;5.40;99.90;;;;;;4932322;29;20035;-74
2023/01/26 04:53:26;;;;;;;7.57;4.30;;;5.20;99.90;;;;;;4932103;29;20419;-75
2023/01/26 04:55:52;;;;;;;6.97;3.92;;;5.70;99.90;;;;;;4941573;28;20250;-74
2023/01/26 04:58:18;;;;;;;7.97;4.40;;;5.20;99.90;;;;;;4949422;29;20038;-74
2023/01/26 05:00:58;;;;;;;6.57;4.20;;;5.80;99.90;;;;;;4949258;29;20130;-74
2023/01/26 05:03:25;;;;;;;7.47;4.15;;;5.80;99.90;;;;;;4944792;29;20055;-75
2023/01/26 05:05:52;;;;;;;7.53;4.10;;;5.70;99.90;;;;;;4949477;29;20047;-74
2023/01/26 05:08:19;;;;;;;7.55;4.05;;;5.90;99.90;;;;;;4949352;29;20042;-74
2023/01/26 05:10:45;;;;;;;5.80;3.20;;;5.50;99.90;;;;;;4946810;29;20166;-74
2023/01/26 05:13:11;;;;;;;4.88;2.90;;;5.70;99.90;;;;;;4932767;29;20043;-74
2023/01/26 05:15:38;;;;;;;6.32;3.50;;;5.40;99.90;;;;;;4949740;29;20058;-74
2023/01/26 05:18:04;;;;;;;7.80;4.55;;;5.40;99.90;;;;;;4945494;29;20447;-74
2023/01/26 05:20:31;;;;;;;9.13;4.13;;;6.00;99.90;;;;;;4943936;29;20062;-75
2023/01/26 05:22:57;;;;;;;7.97;4.35;;;6.00;99.90;;;;;;4947013;29;20111;-75
2023/01/26 05:25:23;;;;;;;7.07;3.85;;;5.90;99.90;;;;;;4949568;29;20426;-75
2023/01/26 05:27:49;;;;;;;9.98;4.90;;;5.80;99.90;;;;;;4924058;29;20054;-75
2023/01/26 05:30:15;;;;;;;6.53;3.72;;;5.50;99.90;;;;;;4916377;29;20425;-75
2023/01/26 05:32:41;;;;;;;6.20;3.60;;;5.50;99.90;;;;;;4918749;29;20483;-75
2023/01/26 05:35:07;;;;;;;6.95;3.88;;;5.70;99.90;;;;;;4933389;29;20051;-75
2023/01/26 05:37:33;;;;;;;7.85;4.13;;;6.20;99.90;;;;;;4949430;28;20050;-74
2023/01/26 05:39:59;;;;;;;7.47;4.00;;;6.10;99.90;;;;;;4945869;28;20474;-75
2023/01/26 05:42:25;;;;;;;6.03;3.17;;;6.20;99.90;;;;;;4935549;29;20049;-75
2023/01/26 05:44:51;;;;;;;6.22;3.38;;;5.80;99.90;;;;;;4935629;29;20117;-74
2023/01/26 05:47:18;;;;;;;5.00;2.60;;;5.70;99.90;;;;;;4935604;29;20040;-75
2023/01/26 05:49:44;;;;;;;4.80;2.67;;;6.30;99.90;;;;;;4944401;29;20047;-75
2023/01/26 05:52:13;;;;;;;4.18;2.58;;;6.30;99.90;;;;;;4952763;29;20043;-74
2023/01/26 05:54:39;;;;;;;3.92;2.08;;;6.20;99.90;;;;;;4924251;29;20082;-75
2023/01/26 05:57:05;;;;;;;4.85;2.80;;;5.60;99.90;;;;;;4919846;29;20075;-75
2023/01/26 05:59:31;;;;;;;3.85;2.20;;;6.10;99.90;;;;;;4924252;29;20102;-75
2023/01/26 06:01:57;;;;;;;4.20;2.20;;;6.20;99.90;;;;;;4926176;29;20055;-75
2023/01/26 06:04:22;;;;;;;5.05;2.85;;;6.00;99.90;;;;;;4936680;29;20289;-75
2023/01/26 06:06:50;;;;;;;5.45;3.08;;;5.80;99.90;;;;;;4936687;29;20049;-75
2023/01/26 06:09:16;;;;;;;5.18;2.80;;;6.10;99.90;;;;;;4936705;29;20126;-75
2023/01/26 06:11:42;;;;;;;5.23;2.67;;;5.80;99.90;;;;;;4922085;29;20047;-75
2023/01/26 06:14:07;;;;;;;5.72;3.10;;;5.60;99.90;;;;;;4919433;29;20298;-75
2023/01/26 06:16:33;;;;;;;5.75;2.90;;;5.50;99.90;;;;;;4933831;29;20077;-75
2023/01/26 06:18:59;;;;;;;5.43;2.72;;;5.80;99.90;;;;;;4908182;29;20157;-75
2023/01/26 06:21:24;;;;;;;6.18;3.33;;;5.70;99.90;;;;;;4923236;29;20078;-75
2023/01/26 06:23:50;;;;;;;4.63;2.67;;;5.50;99.90;;;;;;4926384;29;20071;-76
2023/01/26 06:26:16;;;;;;;5.25;2.90;;;5.30;99.90;;;;;;4914237;28;20039;-75
2023/01/26 06:28:41;;;;;;;4.95;2.63;;;5.80;99.90;;;;;;4954407;28;20144;-75
2023/01/26 06:31:09;;;;;;;5.63;2.50;;;5.80;99.90;;;;;;4930967;28;20105;-75
2023/01/26 06:33:36;;;;;;;3.83;2.03;;;5.30;99.90;;;;;;4920265;29;20054;-75
2023/01/26 06:36:11;;;;;;;3.53;2.00;;;5.60;99.90;;;;;;4920595;29;20044;-75
2023/01/26 06:38:38;;;;;;;4.13;2.00;;;5.30;99.90;;;;;;4922891;29;20054;-75
2023/01/26 06:41:07;;;;;;;;;;;5.80;99.90;;;;;;4922136;29;20046;-74
2023/01/26 06:43:34;;;;;;;3.75;2.15;;;5.80;99.90;;;;;;4927500;29;20006;-74
2023/01/26 06:46:01;;;;;;;3.38;2.00;;;5.70;99.90;;;;;;4910582;29;20047;-73
2023/01/26 06:48:28;;;;;;;4.35;1.90;;;5.60;99.90;;;;;;4924764;29;20579;-74
2023/01/26 06:51:24;;;;;;;3.20;2.00;;;5.60;99.90;;;;;;4919749;29;20500;-75
2023/01/26 06:53:55;;;;;;;3.40;1.63;;;5.90;99.90;;;;;;4937827;29;20055;-75
2023/01/26 06:56:23;;;;;;;4.00;2.10;;;5.90;99.90;;;;;;4942656;28;20040;-75
2023/01/26 06:58:49;;;;;;;3.28;1.83;;;5.20;99.90;;;;;;4939130;28;20059;-75
2023/01/26 07:01:17;;;;;;;3.85;2.00;;;5.40;99.90;;;;;;4943252;28;20079;-73
2023/01/26 07:03:43;;;;;;;3.15;1.83;;;5.20;99.90;;;;;;4935720;29;20114;-73
2023/01/26 07:06:12;;;;;;;4.13;1.92;;;5.10;99.90;;;;;;4945789;29;20142;-73
2023/01/26 07:08:38;;;;;;;3.90;2.00;;;5.10;99.90;;;;;;4937695;29;20047;-73
2023/01/26 07:11:04;;;;;;;3.53;1.80;;;5.10;99.90;;;;;;4940093;29;20490;-73
2023/01/26 07:13:30;;;;;;;3.42;2.17;;;5.60;99.90;;;;;;4915765;29;20048;-73
2023/01/26 07:16:04;;;;;;;3.30;2.03;;;4.90;99.90;;;;;;4923426;29;20126;-73
2023/01/26 07:18:30;;;;;;;3.50;1.98;;;5.50;99.90;;;;;;4941433;29;20146;-73
2023/01/26 07:21:25;;;;;;;3.00;1.85;;;5.30;99.90;;;;;;4951395;28;20085;-73
2023/01/26 07:23:52;;;;;;;3.50;1.73;;;5.50;99.90;;;;;;4940306;29;20097;-73
2023/01/26 07:26:18;;;;;;;;;;;5.50;99.90;;;;;;4952104;29;20054;-73
2023/01/26 07:28:44;;;;;;;3.55;1.90;;;5.30;99.90;;;;;;4951759;29;19965;-73
2023/01/26 07:31:11;;;;;;;4.15;2.25;;;5.60;99.90;;;;;;4951988;29;20073;-73
2023/01/26 07:33:36;;;;;;;3.80;2.00;;;5.50;99.90;;;;;;4937082;29;20462;-73
2023/01/26 07:36:02;;;;;;;3.25;1.83;;;5.00;99.90;;;;;;4952639;29;20126;-73
2023/01/26 07:38:28;;;;;;;2.78;1.65;;;4.90;99.90;;;;;;4936685;29;20054;-73
2023/01/26 07:40:55;;;;;;;3.30;1.50;;;5.50;99.90;;;;;;4936628;29;20126;-73
2023/01/26 07:43:20;;;;;;;2.67;1.50;;;5.60;99.90;;;;;;4953698;28;20797;-73
2023/01/26 07:45:51;;;;;;;3.58;1.77;;;5.60;99.90;;;;;;4952638;29;20043;-73
2023/01/26 07:48:18;;;;;;;2.80;1.50;;;5.10;99.90;;;;;;4952655;29;20074;-73
2023/01/26 07:50:46;;;;;;;2.28;1.40;;;5.70;99.90;;;;;;4951186;29;20045;-73
2023/01/26 07:53:13;;;;;;;2.50;1.50;;;5.70;99.90;;;;;;4951586;29;20067;-73
2023/01/26 07:55:42;;;;;;;3.28;1.65;;;5.70;99.90;;;;;;4952160;28;20059;-73
2023/01/26 07:58:12;;;;;;;2.20;1.33;;;5.70;99.90;;;;;;4952388;29;20480;-73
2023/01/26 08:00:38;;;;;;;2.55;1.40;;;5.50;99.90;;;;;;4935225;29;20054;-73
2023/01/26 08:03:04;;;;;;;;;;;5.70;99.90;;;;;;4952529;28;20066;-73
2023/01/26 08:05:31;;;;;;;2.55;1.50;;;5.50;99.90;;;;;;4952103;29;19926;-73
2023/01/26 08:07:57;;;;;;;;;;;5.60;99.90;;;;;;4952559;28;20043;-73
2023/01/26 08:10:23;;;;;;;2.47;1.50;;;4.90;99.90;;;;;;4951992;29;19918;-73
2023/01/26 08:12:49;;;;;;;3.80;1.65;;;5.20;99.90;;;;;;4951735;29;20471;-73
2023/01/26 08:15:14;;;;;;;3.10;1.58;;;5.60;99.90;;;;;;4951738;29;20047;-73
2023/01/26 08:17:40;;;;;;;2.10;1.30;;;5.50;99.90;;;;;;4951748;29;20106;-73
2023/01/26 08:20:06;;;;;;;2.07;1.23;;;4.90;99.90;;;;;;4951810;29;20051;-73
2023/01/26 08:22:32;;;;;;;2.28;1.30;;;4.80;99.90;;;;;;4951627;29;20311;-73
2023/01/26 08:24:58;;;;;;;3.30;1.30;;;5.50;99.90;;;;;;4929106;29;20074;-73
2023/01/26 08:27:23;;;;;;;3.20;1.27;;;5.30;99.90;;;;;;4922483;29;20039;-73
2023/01/26 08:29:50;;;;;;;2.25;1.30;;;4.90;99.90;;;;;;4948094;29;20054;-73
2023/01/26 08:32:16;;;;;;;2.40;1.40;;;4.90;99.90;;;;;;4945630;29;20106;-73
2023/01/26 08:34:41;;;;;;;2.92;1.50;;;4.90;99.90;;;;;;4951296;29;20051;-73
2023/01/26 08:37:07;;;;;;;2.20;1.13;;;5.60;99.90;;;;;;4951494;29;20093;-73
2023/01/26 08:39:32;;;;;;;3.05;1.23;;;4.90;99.90;;;;;;4951683;29;20131;-73
2023/01/26 08:41:58;;;;;;;1.80;1.00;;;5.70;99.90;;;;;;4951437;28;20412;-73
2023/01/26 08:44:24;;;;;;;1.50;1.00;;;5.40;99.90;;;;;;4951100;29;20279;-73
2023/01/26 08:46:49;;;;;;;2.35;1.10;;;5.30;99.90;;;;;;4948313;29;20294;-73
2023/01/26 08:49:15;;;;;;;2.45;1.38;;;5.40;99.90;;;;;;4951434;29;20047;-73
2023/01/26 08:51:41;;;;;;;1.77;1.00;;;5.80;99.90;;;;;;4935322;29;20101;-73
2023/01/26 08:54:07;;;;;;;1.17;0.80;;;5.70;99.90;;;;;;4950951;29;20098;-73
2023/01/26 08:56:33;;;;;;;1.65;0.88;;;6.20;99.90;;;;;;4951097;28;20047;-73
2023/01/26 08:58:59;;;;;;;2.67;1.20;;;5.90;99.90;;;;;;4951378;29;20078;-73
2023/01/26 09:01:25;;;;;;;2.55;0.93;;;6.10;99.90;;;;;;4951118;29;20047;-73
2023/01/26 09:03:52;;;;;;;1.33;0.70;;;6.30;99.90;;;;;;4951602;29;20403;-73
2023/01/26 09:06:18;;;;;;;;;;;6.60;99.90;;;;;;4951547;29;20156;-73
2023/01/26 09:08:44;;;;;;;6.15;1.20;;;6.80;99.90;;;;;;4951461;29;19934;-73
2023/01/26 09:11:11;;;;;;;4.63;1.20;;;7.70;99.90;;;;;;4951078;28;20051;-73
2023/01/26 09:13:37;;;;;;;6.93;1.05;;;8.10;99.90;;;;;;4950891;28;20051;-73
2023/01/26 09:16:11;;;;;;;3.55;1.20;;;8.40;99.90;;;;;;4951171;29;20050;-75
2023/01/26 09:18:37;;;;;;;9.98;1.33;;;8.20;99.90;;;;;;4951077;29;20050;-74
2023/01/26 09:21:08;;;;;;;4.17;1.20;;;8.70;99.90;;;;;;4951278;29;20051;-74
2023/01/26 09:23:35;;;;;;;6.35;1.40;;;8.90;99.90;;;;;;4951191;29;20422;-74
2023/01/26 09:26:01;;;;;;;4.15;1.02;;;8.70;99.90;;;;;;4935017;29;20091;-74
2023/01/26 09:28:27;;;;;;;8.30;1.40;;;8.60;99.90;;;;;;4951035;29;20511;-74
2023/01/26 09:30:53;;;;;;;6.43;1.40;;;9.00;99.90;;;;;;4950963;29;20495;-74
2023/01/26 09:33:20;;;;;;;5.82;1.65;;;9.20;99.90;;;;;;4950993;29;20122;-74
2023/01/26 09:35:46;;;;;;;5.13;1.40;;;8.80;99.90;;;;;;4950735;29;20467;-74
2023/01/26 09:38:12;;;;;;;4.40;0.90;;;8.90;99.90;;;;;;4950667;29;20054;-74
2023/01/26 09:41:04;;;;;;;4.43;1.10;;;9.70;99.90;;;;;;4950677;29;20118;-74
2023/01/26 09:43:48;;;;;;;2.88;0.70;;;9.70;99.90;;;;;;4951016;28;20047;-74
2023/01/26 09:46:23;;;;;;;4.15;1.00;;;9.30;99.90;;;;;;4950650;29;20121;-74
2023/01/26 09:49:15;;;;;;;5.63;1.30;;;10.20;99.90;;;;;;4951020;29;20083;-75
2023/01/26 09:51:47;;;;;;;3.28;1.02;;;10.50;99.90;;;;;;4944547;29;20534;-75
2023/01/26 09:54:22;;;;;;;5.53;1.40;;;9.80;99.90;;;;;;4950429;28;20063;-75
2023/01/26 09:56:48;;;;;;;11.63;1.75;;;10.20;99.90;;;;;;4951122;29;20046;-74
2023/01/26 09:59:35;;;;;;;13.80;2.10;;;10.70;99.90;;;;;;4942181;29;20415;-73
2023/01/26 10:02:22;;;;;;;17.00;2.63;;;10.80;99.90;;;;;;4946864;28;20134;-73
2023/01/26 10:04:52;;;;;;;16.23;2.43;;;10.30;99.90;;;;;;4931905;29;20682;-73
2023/01/26 10:07:17;;;;;;;7.55;1.83;;;11.00;99.90;;;;;;4941223;29;20048;-73
2023/01/26 10:09:49;;;;;;;15.30;2.55;;;11.40;99.90;;;;;;4935293;29;20053;-73
2023/01/26 10:12:35;;;;;;;11.13;2.17;;;10.60;99.90;;;;;;4951022;29;20047;-73
2023/01/26 10:15:07;;;;;;;12.00;2.30;;;11.00;99.90;;;;;;4935811;29;20052;-73
2023/01/26 10:17:35;;;;;;;12.75;2.20;;;11.20;99.90;;;;;;4942859;29;20047;-74
2023/01/26 10:20:46;;;;;;;10.30;1.67;;;11.50;99.90;;;;;;4936011;29;20060;-73
2023/01/26 10:23:33;;;;;;;16.10;2.08;;;11.60;99.90;;;;;;4949295;28;20043;-73
2023/01/26 10:26:20;;;;;;;16.17;2.65;;;11.10;99.90;;;;;;4954362;29;20047;-73
2023/01/26 10:28:49;;;;;;;16.13;2.38;;;10.90;99.90;;;;;;4949190;29;20123;-73
2023/01/26 10:31:22;;;;;;;10.52;1.98;;;11.30;99.90;;;;;;4943630;28;20441;-73
2023/01/26 10:34:09;;;;;;;19.02;2.80;;;11.80;99.90;;;;;;4954242;28;20058;-72
2023/01/26 10:36:34;;;;;;;10.95;2.17;;;11.70;99.90;;;;;;4937913;29;20133;-73
2023/01/26 10:39:09;;;;;;;18.20;2.95;;;11.20;99.90;;;;;;4953928;29;20094;-73
2023/01/26 10:41:35;;;;;;;12.43;2.60;;;11.40;99.90;;;;;;4953679;28;20428;-73
2023/01/26 10:44:19;;;;;;;9.15;2.03;;;11.20;99.90;;;;;;4953617;28;20062;-73
2023/01/26 10:46:45;;;;;;;15.73;2.47;;;11.30;99.90;;;;;;4939486;28;20047;-73
2023/01/26 10:49:10;;;;;;;10.82;2.03;;;12.00;99.90;;;;;;4954107;28;20055;-73
2023/01/26 10:51:38;;;;;;;17.20;2.75;;;11.50;99.90;;;;;;4953657;28;20051;-73
2023/01/26 10:54:19;;;;;;;14.57;2.42;;;11.60;99.90;;;;;;4953578;28;20098;-73
2023/01/26 10:56:47;;;;;;;11.50;2.15;;;12.30;99.90;;;;;;4939438;29;20043;-73
2023/01/26 10:59:22;;;;;;;14.57;2.28;;;11.70;99.90;;;;;;4953649;29;20054;-73
2023/01/26 11:02:09;;;;;;;14.77;2.10;;;12.40;99.90;;;;;;4953486;28;20043;-73
2023/01/26 11:04:35;;;;;;;13.55;2.08;;;12.20;99.90;;;;;;4953313;28;20051;-73
2023/01/26 11:07:23;;;;;;;10.52;2.08;;;12.30;99.90;;;;;;4953612;28;20055;-73
2023/01/26 11:09:50;;;;;;;13.02;2.10;;;11.90;99.90;;;;;;4953355;29;20048;-73
2023/01/26 11:12:20;;;;;;;12.50;2.33;;;12.10;99.90;;;;;;4953298;28;20054;-73
2023/01/26 11:15:01;;;;;;;13.25;2.50;;;11.80;99.90;;;;;;4953327;28;20577;-73
2023/01/26 11:17:50;;;;;;;15.40;2.50;;;11.70;99.90;;;;;;4953356;29;20039;-73
2023/01/26 11:20:47;;;;;;;13.88;2.22;;;11.70;99.90;;;;;;4927991;29;20099;-73
2023/01/26 11:23:18;;;;;;;17.65;3.13;;;12.00;99.90;;;;;;4953069;29;20047;-73
2023/01/26 11:25:52;;;;;;;15.65;2.60;;;12.10;99.90;;;;;;4952967;29;20558;-73
2023/01/26 11:28:46;;;;;;;14.02;2.45;;;11.90;99.90;;;;;;4952796;29;20047;-73
2023/01/26 11:31:18;;;;;;;12.23;1.98;;;11.60;99.90;;;;;;4947000;29;20039;-73
2023/01/26 11:34:14;;;;;;;12.57;2.20;;;11.50;99.90;;;;;;4949982;29;20084;-73
2023/01/26 11:36:49;;;;;;;9.25;1.80;;;11.40;99.90;;;;;;4951593;28;20263;-73
2023/01/26 11:39:32;;;;;;;12.73;1.95;;;10.90;99.90;;;;;;4952962;29;20046;-73
2023/01/26 11:42:32;;;;;;;11.10;1.80;;;10.60;99.90;;;;;;4952643;29;20133;-73
2023/01/26 11:45:07;;;;;;;13.05;2.47;;;10.20;99.90;;;;;;4940179;29;20043;-73
2023/01/26 11:47:41;;;;;;;9.63;2.10;;;9.90;99.90;;;;;;4944104;29;20402;-73
2023/01/26 11:50:13;;;;;;;9.75;2.10;;;9.60;99.90;;;;;;4949213;29;20157;-73
2023/01/26 11:53:07;;;;;;;9.38;1.85;;;9.20;99.90;;;;;;4952525;29;20048;-73
2023/01/26 11:56:05;;;;;;;14.60;2.58;;;9.00;99.90;;;;;;4952351;28;20407;-73
2023/01/26 11:58:45;;;;;;;17.83;2.72;;;8.90;99.90;;;;;;4948701;29;20462;-73
2023/01/26 12:01:19;;;;;;;10.00;1.92;;;8.80;99.90;;;;;;4941394;28;20114;-73
2023/01/26 12:03:48;;;;;;;9.60;1.85;;;8.80;99.90;;;;;;4952114;28;20047;-73
2023/01/26 12:06:25;;;;;;;13.32;2.58;;;8.80;99.90;;;;;;4952067;28;20043;-73
2023/01/26 12:08:57;;;;;;;15.05;2.15;;;8.90;99.90;;;;;;4952353;28;20047;-73
2023/01/26 12:11:40;;;;;;;17.63;3.15;;;8.90;99.90;;;;;;4952346;28;20566;-73
2023/01/26 12:14:23;;;;;;;12.68;2.40;;;8.80;99.90;;;;;;4953145;28;20550;-73
2023/01/26 12:17:02;;;;;;;13.65;2.00;;;8.80;99.90;;;;;;4938387;28;20046;-73
2023/01/26 12:19:52;;;;;;;11.70;2.20;;;8.80;99.90;;;;;;4952362;28;20047;-73
2023/01/26 12:22:27;;;;;;;11.30;2.10;;;8.90;99.90;;;;;;4935949;29;20106;-73
2023/01/26 12:25:01;;;;;;;15.13;2.30;;;8.90;99.90;;;;;;4951848;28;20110;-73
2023/01/26 12:27:46;;;;;;;12.68;2.20;;;8.80;99.90;;;;;;4951785;28;20068;-73
2023/01/26 12:30:34;;;;;;;13.68;2.30;;;8.70;99.90;;;;;;4951419;28;20047;-73
2023/01/26 12:33:00;;;;;;;12.05;2.15;;;8.70;99.90;;;;;;4951436;28;20141;-73
2023/01/26 12:35:45;;;;;;;12.23;1.90;;;8.70;99.90;;;;;;4951751;28;20042;-73
2023/01/26 12:38:26;;;;;;;10.38;2.00;;;8.60;99.90;;;;;;4951796;29;20387;-73
2023/01/26 12:41:17;;;;;;;11.75;1.83;;;8.60;99.90;;;;;;4935524;28;20384;-73
2023/01/26 12:44:01;;;;;;;8.68;1.30;;;8.60;99.90;;;;;;4951338;28;20082;-73
2023/01/26 12:46:33;;;;;;;10.60;1.90;;;8.60;99.90;;;;;;4951295;28;20122;-73
2023/01/26 12:49:25;;;;;;;9.05;1.83;;;8.50;99.90;;;;;;4951275;28;20047;-73
2023/01/26 12:51:56;;;;;;;5.40;1.00;;;8.50;99.90;;;;;;4951409;28;20058;-73
2023/01/26 12:54:43;;;;;;;9.63;1.60;;;8.40;99.90;;;;;;4951225;28;20071;-73
2023/01/26 12:57:19;;;;;;;8.23;1.60;;;8.40;99.90;;;;;;4951562;29;20054;-73
2023/01/26 12:59:45;;;;;;;5.80;1.20;;;8.40;99.90;;;;;;4951194;29;20047;-73
2023/01/26 13:02:33;;;;;;;9.13;1.42;;;8.40;99.90;;;;;;4935008;29;20059;-73
2023/01/26 13:05:00;;;;;;;6.97;1.40;;;8.40;99.90;;;;;;4951294;29;20047;-73
2023/01/26 13:07:25;;;;;;;8.32;1.33;;;8.30;99.90;;;;;;4951074;29;20388;-73
2023/01/26 13:10:13;;;;;;;6.13;1.42;;;8.40;99.90;;;;;;4950644;29;20106;-72
2023/01/26 13:12:58;;;;;;;8.55;1.48;;;8.40;99.90;;;;;;4934300;28;20083;-73
2023/01/26 13:15:27;;;;;;;9.00;1.30;;;8.40;99.90;;;;;;4946675;29;20118;-72
2023/01/26 13:17:54;;;;;;;10.32;1.52;;;8.40;99.90;;;;;;4935314;29;20514;-72
2023/01/26 13:20:26;;;;;;;7.57;1.27;;;8.30;99.90;;;;;;4950613;29;20491;-72
2023/01/26 13:22:53;;;;;;;6.78;1.15;;;8.30;99.90;;;;;;4934765;29;20050;-72
2023/01/26 13:25:30;;;;;;;9.23;1.48;;;8.20;99.90;;;;;;4947651;29;20407;-72
2023/01/26 13:28:11;;;;;;;7.82;1.33;;;8.20;99.90;;;;;;4945884;28;20039;-72
2023/01/26 13:30:44;;;;;;;6.55;1.40;;;8.20;99.90;;;;;;4950718;28;20043;-73
2023/01/26 13:33:15;;;;;;;9.25;1.42;;;8.20;99.90;;;;;;4951021;29;20057;-72
2023/01/26 13:35:41;;;;;;;8.00;1.20;;;8.20;99.90;;;;;;4945191;29;20043;-73
2023/01/26 13:38:10;;;;;;;;;;;8.20;99.90;;;;;;4947764;28;20101;-73
2023/01/26 13:40:40;;;;;;;9.55;1.75;;;8.10;99.90;;;;;;4934462;29;19953;-73
2023/01/26 13:43:15;;;;;;;11.18;1.90;;;8.10;99.90;;;;;;4950744;28;20055;-73
2023/01/26 13:45:59;;;;;;;14.77;2.00;;;8.10;99.90;;;;;;4945837;29;20250;-73
2023/01/26 13:48:47;;;;;;;12.48;1.65;;;8.00;99.90;;;;;;4949781;28;20083;-73
2023/01/26 13:51:17;;;;;;;13.65;2.13;;;8.00;99.90;;;;;;4950513;29;20099;-72
2023/01/26 13:53:47;;;;;;;9.57;1.70;;;7.90;99.90;;;;;;4950340;29;20063;-72
2023/01/26 13:56:41;;;;;;;14.73;3.00;;;7.90;99.90;;;;;;4926714;29;20555;-72
2023/01/26 13:59:16;;;;;;;10.35;1.70;;;7.90;99.90;;;;;;4950550;28;20047;-72